Rowsburg, Ohio
Current Conditions -  °F | °C
As of 7:03 AM on Thursday 27 Nov 2014 (Local Time) from KBJJ Reporting Station
Light Snow Light Snow  
Wind Chill: 23°   Ceiling: 400
Heat Index: 31°   Visibility: 3mi
Dew Point: 30°   Wind: 9mph
Humidity: 96%   Direction: 340°NNW
Pressure: 30.05"   Gusts: NA
Location:  40.9196°N, 82.2006°W
Report Text: KBJJ 271203Z AUTO 34008KT 3SM -SN BR OVC004 M01/M01 A3005 RMK AO2 P0000 T10061011 TSNO
Loading
Personal Weather Stations






























Interactive Weather Map New forecast layout! Learn more

10-Day Weather Forecast

Advertisements
Track Severe Weather on mobile